sensor_id;sensor_type;location;lat;lon;timestamp;P1;durP1;ratioP1;P2;durP2;ratioP2
75320;SDS011;68337;52.196;5.660;2023-03-13T00:01:16;39.67;;;7.80;;
75320;SDS011;68337;52.196;5.660;2023-03-13T00:03:50;29.80;;;7.63;;
75320;SDS011;68337;52.196;5.660;2023-03-13T00:06:16;30.58;;;6.85;;
75320;SDS011;68337;52.196;5.660;2023-03-13T00:08:43;28.92;;;7.43;;
75320;SDS011;68337;52.196;5.660;2023-03-13T00:11:10;32.15;;;7.10;;
75320;SDS011;68337;52.196;5.660;2023-03-13T00:13:36;30.17;;;8.35;;
75320;SDS011;68337;52.196;5.660;2023-03-13T00:16:04;35.10;;;8.18;;
75320;SDS011;68337;52.196;5.660;2023-03-13T00:18:31;25.60;;;6.15;;
75320;SDS011;68337;52.196;5.660;2023-03-13T00:21:00;31.13;;;6.88;;
75320;SDS011;68337;52.196;5.660;2023-03-13T00:23:27;42.13;;;7.95;;
75320;SDS011;68337;52.196;5.660;2023-03-13T00:25:57;34.58;;;8.25;;
75320;SDS011;68337;52.196;5.660;2023-03-13T00:28:24;28.88;;;7.20;;
75320;SDS011;68337;52.196;5.660;2023-03-13T00:30:59;29.85;;;6.32;;
75320;SDS011;68337;52.196;5.660;2023-03-13T00:33:36;27.27;;;7.32;;
75320;SDS011;68337;52.196;5.660;2023-03-13T00:36:07;29.20;;;6.78;;
75320;SDS011;68337;52.196;5.660;2023-03-13T00:38:35;28.10;;;6.22;;
75320;SDS011;68337;52.196;5.660;2023-03-13T00:43:36;29.52;;;6.80;;
75320;SDS011;68337;52.196;5.660;2023-03-13T00:46:03;29.90;;;7.13;;
75320;SDS011;68337;52.196;5.660;2023-03-13T00:48:29;28.42;;;6.38;;
75320;SDS011;68337;52.196;5.660;2023-03-13T00:50:54;31.00;;;6.20;;
75320;SDS011;68337;52.196;5.660;2023-03-13T00:53:20;27.50;;;6.45;;
75320;SDS011;68337;52.196;5.660;2023-03-13T00:55:53;30.50;;;6.80;;
75320;SDS011;68337;52.196;5.660;2023-03-13T00:58:24;27.55;;;7.22;;
75320;SDS011;68337;52.196;5.660;2023-03-13T01:00:51;27.25;;;5.97;;
75320;SDS011;68337;52.196;5.660;2023-03-13T01:03:17;32.88;;;7.63;;
75320;SDS011;68337;52.196;5.660;2023-03-13T01:05:43;32.60;;;7.50;;
75320;SDS011;68337;52.196;5.660;2023-03-13T01:08:09;34.50;;;8.02;;
75320;SDS011;68337;52.196;5.660;2023-03-13T01:10:34;29.13;;;7.28;;
75320;SDS011;68337;52.196;5.660;2023-03-13T01:13:00;25.30;;;6.70;;
75320;SDS011;68337;52.196;5.660;2023-03-13T01:15:28;33.90;;;7.15;;
75320;SDS011;68337;52.196;5.660;2023-03-13T01:17:55;33.58;;;7.07;;
75320;SDS011;68337;52.196;5.660;2023-03-13T01:20:20;32.42;;;7.43;;
75320;SDS011;68337;52.196;5.660;2023-03-13T01:22:46;29.98;;;7.20;;
75320;SDS011;68337;52.196;5.660;2023-03-13T01:25:12;28.83;;;7.03;;
75320;SDS011;68337;52.196;5.660;2023-03-13T01:27:37;39.03;;;8.40;;
75320;SDS011;68337;52.196;5.660;2023-03-13T01:30:03;30.73;;;7.45;;
75320;SDS011;68337;52.196;5.660;2023-03-13T01:32:31;30.52;;;6.97;;
75320;SDS011;68337;52.196;5.660;2023-03-13T01:34:57;31.63;;;7.82;;
75320;SDS011;68337;52.196;5.660;2023-03-13T01:37:23;26.35;;;6.70;;
75320;SDS011;68337;52.196;5.660;2023-03-13T01:39:49;22.58;;;6.78;;
75320;SDS011;68337;52.196;5.660;2023-03-13T01:42:14;28.52;;;7.60;;
75320;SDS011;68337;52.196;5.660;2023-03-13T01:44:50;29.63;;;7.00;;
75320;SDS011;68337;52.196;5.660;2023-03-13T01:47:21;25.77;;;7.40;;
75320;SDS011;68337;52.196;5.660;2023-03-13T01:49:47;23.00;;;7.43;;
75320;SDS011;68337;52.196;5.660;2023-03-13T01:57:26;26.88;;;6.57;;
75320;SDS011;68337;52.196;5.660;2023-03-13T02:02:34;26.05;;;6.45;;
75320;SDS011;68337;52.196;5.660;2023-03-13T02:05:02;20.02;;;6.72;;
75320;SDS011;68337;52.196;5.660;2023-03-13T02:07:35;20.88;;;6.35;;
75320;SDS011;68337;52.196;5.660;2023-03-13T02:10:06;14.30;;;6.15;;
75320;SDS011;68337;52.196;5.660;2023-03-13T02:12:35;19.38;;;6.38;;
75320;SDS011;68337;52.196;5.660;2023-03-13T02:15:07;13.98;;;6.03;;
75320;SDS011;68337;52.196;5.660;2023-03-13T02:17:39;20.67;;;5.78;;
75320;SDS011;68337;52.196;5.660;2023-03-13T02:20:06;17.45;;;6.25;;
75320;SDS011;68337;52.196;5.660;2023-03-13T02:27:53;18.45;;;6.55;;
75320;SDS011;68337;52.196;5.660;2023-03-13T02:30:22;13.98;;;6.00;;
75320;SDS011;68337;52.196;5.660;2023-03-13T02:32:48;14.82;;;5.65;;
75320;SDS011;68337;52.196;5.660;2023-03-13T02:35:16;14.18;;;6.35;;
75320;SDS011;68337;52.196;5.660;2023-03-13T02:37:45;15.25;;;7.30;;
75320;SDS011;68337;52.196;5.660;2023-03-13T02:40:15;23.38;;;7.95;;
75320;SDS011;68337;52.196;5.660;2023-03-13T02:42:44;17.70;;;7.30;;
75320;SDS011;68337;52.196;5.660;2023-03-13T02:45:15;16.25;;;7.05;;
75320;SDS011;68337;52.196;5.660;2023-03-13T02:47:41;22.75;;;8.70;;
75320;SDS011;68337;52.196;5.660;2023-03-13T02:50:08;16.08;;;7.60;;
75320;SDS011;68337;52.196;5.660;2023-03-13T02:52:45;11.52;;;7.90;;
75320;SDS011;68337;52.196;5.660;2023-03-13T02:55:20;16.13;;;8.50;;
75320;SDS011;68337;52.196;5.660;2023-03-13T02:57:52;14.88;;;8.25;;
75320;SDS011;68337;52.196;5.660;2023-03-13T03:00:18;14.32;;;8.68;;
75320;SDS011;68337;52.196;5.660;2023-03-13T03:02:44;16.63;;;8.43;;
75320;SDS011;68337;52.196;5.660;2023-03-13T03:05:11;13.73;;;9.10;;
75320;SDS011;68337;52.196;5.660;2023-03-13T03:07:37;16.00;;;9.43;;
75320;SDS011;68337;52.196;5.660;2023-03-13T03:10:03;17.58;;;9.18;;
75320;SDS011;68337;52.196;5.660;2023-03-13T03:12:29;21.98;;;10.77;;
75320;SDS011;68337;52.196;5.660;2023-03-13T03:14:55;17.23;;;10.32;;
75320;SDS011;68337;52.196;5.660;2023-03-13T03:17:21;18.13;;;11.80;;
75320;SDS011;68337;52.196;5.660;2023-03-13T03:19:46;19.38;;;11.75;;
75320;SDS011;68337;52.196;5.660;2023-03-13T03:22:12;23.25;;;13.25;;
75320;SDS011;68337;52.196;5.660;2023-03-13T03:24:37;21.50;;;14.15;;
75320;SDS011;68337;52.196;5.660;2023-03-13T03:27:03;27.25;;;13.93;;
75320;SDS011;68337;52.196;5.660;2023-03-13T03:29:29;27.08;;;15.95;;
75320;SDS011;68337;52.196;5.660;2023-03-13T03:31:57;24.45;;;15.07;;
75320;SDS011;68337;52.196;5.660;2023-03-13T03:34:23;22.55;;;14.88;;
75320;SDS011;68337;52.196;5.660;2023-03-13T03:36:49;23.05;;;15.18;;
75320;SDS011;68337;52.196;5.660;2023-03-13T03:39:14;22.98;;;14.23;;
75320;SDS011;68337;52.196;5.660;2023-03-13T03:41:40;29.50;;;15.63;;
75320;SDS011;68337;52.196;5.660;2023-03-13T03:44:06;21.88;;;16.15;;
75320;SDS011;68337;52.196;5.660;2023-03-13T03:46:32;31.40;;;17.50;;
75320;SDS011;68337;52.196;5.660;2023-03-13T03:48:58;28.27;;;16.65;;
75320;SDS011;68337;52.196;5.660;2023-03-13T03:51:23;23.60;;;17.10;;
75320;SDS011;68337;52.196;5.660;2023-03-13T03:53:49;32.65;;;16.52;;
75320;SDS011;68337;52.196;5.660;2023-03-13T03:56:15;27.05;;;16.75;;
75320;SDS011;68337;52.196;5.660;2023-03-13T03:58:40;27.70;;;15.73;;
75320;SDS011;68337;52.196;5.660;2023-03-13T04:01:06;26.10;;;16.40;;
75320;SDS011;68337;52.196;5.660;2023-03-13T04:03:32;25.88;;;16.02;;
75320;SDS011;68337;52.196;5.660;2023-03-13T04:05:58;25.23;;;16.80;;
75320;SDS011;68337;52.196;5.660;2023-03-13T04:08:24;26.27;;;15.82;;
75320;SDS011;68337;52.196;5.660;2023-03-13T04:10:50;21.15;;;15.88;;
75320;SDS011;68337;52.196;5.660;2023-03-13T04:13:15;21.70;;;16.52;;
75320;SDS011;68337;52.196;5.660;2023-03-13T04:15:41;22.75;;;15.75;;
75320;SDS011;68337;52.196;5.660;2023-03-13T04:18:07;23.42;;;15.73;;
75320;SDS011;68337;52.196;5.660;2023-03-13T04:20:33;20.63;;;15.50;;
75320;SDS011;68337;52.196;5.660;2023-03-13T04:23:00;26.02;;;15.60;;
75320;SDS011;68337;52.196;5.660;2023-03-13T04:25:25;27.95;;;16.27;;
75320;SDS011;68337;52.196;5.660;2023-03-13T04:27:51;18.95;;;15.55;;
75320;SDS011;68337;52.196;5.660;2023-03-13T04:30:17;19.80;;;15.13;;
75320;SDS011;68337;52.196;5.660;2023-03-13T04:32:43;22.92;;;15.00;;
75320;SDS011;68337;52.196;5.660;2023-03-13T04:35:08;19.70;;;14.38;;
75320;SDS011;68337;52.196;5.660;2023-03-13T04:37:34;23.10;;;14.85;;
75320;SDS011;68337;52.196;5.660;2023-03-13T04:40:00;21.33;;;13.82;;
75320;SDS011;68337;52.196;5.660;2023-03-13T04:42:26;23.42;;;15.27;;
75320;SDS011;68337;52.196;5.660;2023-03-13T04:44:52;20.88;;;14.00;;
75320;SDS011;68337;52.196;5.660;2023-03-13T04:47:17;17.83;;;14.30;;
75320;SDS011;68337;52.196;5.660;2023-03-13T04:49:43;23.52;;;14.35;;
75320;SDS011;68337;52.196;5.660;2023-03-13T04:52:09;19.63;;;13.63;;
75320;SDS011;68337;52.196;5.660;2023-03-13T04:54:35;20.45;;;13.90;;
75320;SDS011;68337;52.196;5.660;2023-03-13T04:57:00;23.27;;;13.57;;
75320;SDS011;68337;52.196;5.660;2023-03-13T04:59:26;22.48;;;13.80;;
75320;SDS011;68337;52.196;5.660;2023-03-13T05:01:52;22.23;;;13.55;;
75320;SDS011;68337;52.196;5.660;2023-03-13T05:04:18;16.48;;;12.98;;
75320;SDS011;68337;52.196;5.660;2023-03-13T05:06:43;20.63;;;12.50;;
75320;SDS011;68337;52.196;5.660;2023-03-13T05:09:09;16.55;;;12.23;;
75320;SDS011;68337;52.196;5.660;2023-03-13T05:11:35;17.02;;;11.43;;
75320;SDS011;68337;52.196;5.660;2023-03-13T05:14:01;14.68;;;11.57;;
75320;SDS011;68337;52.196;5.660;2023-03-13T05:16:26;14.73;;;9.82;;
75320;SDS011;68337;52.196;5.660;2023-03-13T05:18:52;14.20;;;10.18;;
75320;SDS011;68337;52.196;5.660;2023-03-13T05:21:18;16.83;;;9.45;;
75320;SDS011;68337;52.196;5.660;2023-03-13T05:23:43;16.58;;;10.00;;
75320;SDS011;68337;52.196;5.660;2023-03-13T05:26:09;14.20;;;9.02;;
75320;SDS011;68337;52.196;5.660;2023-03-13T05:28:35;15.68;;;8.63;;
75320;SDS011;68337;52.196;5.660;2023-03-13T05:31:01;15.05;;;9.05;;
75320;SDS011;68337;52.196;5.660;2023-03-13T05:33:26;21.50;;;8.48;;
75320;SDS011;68337;52.196;5.660;2023-03-13T05:35:52;16.00;;;8.32;;
75320;SDS011;68337;52.196;5.660;2023-03-13T05:38:17;13.57;;;7.68;;
75320;SDS011;68337;52.196;5.660;2023-03-13T05:40:43;10.60;;;6.70;;
75320;SDS011;68337;52.196;5.660;2023-03-13T05:43:09;13.85;;;7.07;;
75320;SDS011;68337;52.196;5.660;2023-03-13T05:45:34;15.80;;;6.82;;
75320;SDS011;68337;52.196;5.660;2023-03-13T05:48:00;13.52;;;6.88;;
75320;SDS011;68337;52.196;5.660;2023-03-13T05:50:26;16.15;;;6.50;;
75320;SDS011;68337;52.196;5.660;2023-03-13T05:52:52;10.40;;;5.50;;
75320;SDS011;68337;52.196;5.660;2023-03-13T05:55:18;7.93;;;5.45;;
75320;SDS011;68337;52.196;5.660;2023-03-13T05:57:44;14.98;;;5.57;;
75320;SDS011;68337;52.196;5.660;2023-03-13T06:00:11;14.88;;;5.05;;
75320;SDS011;68337;52.196;5.660;2023-03-13T06:02:37;21.25;;;5.53;;
75320;SDS011;68337;52.196;5.660;2023-03-13T06:05:03;16.00;;;5.75;;
75320;SDS011;68337;52.196;5.660;2023-03-13T06:07:29;8.30;;;5.18;;
75320;SDS011;68337;52.196;5.660;2023-03-13T06:09:55;13.85;;;5.60;;
75320;SDS011;68337;52.196;5.660;2023-03-13T06:12:20;10.05;;;4.57;;
75320;SDS011;68337;52.196;5.660;2023-03-13T06:14:46;11.30;;;5.03;;
75320;SDS011;68337;52.196;5.660;2023-03-13T06:17:12;10.27;;;4.53;;
75320;SDS011;68337;52.196;5.660;2023-03-13T06:19:37;12.95;;;4.85;;
75320;SDS011;68337;52.196;5.660;2023-03-13T06:22:03;13.98;;;4.80;;
75320;SDS011;68337;52.196;5.660;2023-03-13T06:24:29;8.23;;;4.50;;
75320;SDS011;68337;52.196;5.660;2023-03-13T06:26:55;8.18;;;4.38;;
75320;SDS011;68337;52.196;5.660;2023-03-13T06:29:20;8.90;;;4.70;;
75320;SDS011;68337;52.196;5.660;2023-03-13T06:31:48;10.95;;;4.45;;
75320;SDS011;68337;52.196;5.660;2023-03-13T06:34:14;13.02;;;5.63;;
75320;SDS011;68337;52.196;5.660;2023-03-13T06:36:39;8.60;;;4.65;;
75320;SDS011;68337;52.196;5.660;2023-03-13T06:39:05;11.18;;;5.03;;
75320;SDS011;68337;52.196;5.660;2023-03-13T06:41:32;11.68;;;4.88;;
75320;SDS011;68337;52.196;5.660;2023-03-13T06:43:58;8.00;;;4.70;;
75320;SDS011;68337;52.196;5.660;2023-03-13T06:46:24;9.98;;;5.30;;
75320;SDS011;68337;52.196;5.660;2023-03-13T06:48:50;12.38;;;5.07;;
75320;SDS011;68337;52.196;5.660;2023-03-13T06:51:17;11.02;;;4.50;;
75320;SDS011;68337;52.196;5.660;2023-03-13T06:53:44;16.05;;;4.85;;
75320;SDS011;68337;52.196;5.660;2023-03-13T06:56:11;10.07;;;4.80;;
75320;SDS011;68337;52.196;5.660;2023-03-13T06:58:37;10.90;;;4.78;;
75320;SDS011;68337;52.196;5.660;2023-03-13T07:01:06;8.93;;;4.80;;
75320;SDS011;68337;52.196;5.660;2023-03-13T07:03:34;8.80;;;4.30;;
75320;SDS011;68337;52.196;5.660;2023-03-13T07:06:00;9.15;;;4.68;;
75320;SDS011;68337;52.196;5.660;2023-03-13T07:08:25;8.75;;;4.28;;
75320;SDS011;68337;52.196;5.660;2023-03-13T07:11:00;13.00;;;4.20;;
75320;SDS011;68337;52.196;5.660;2023-03-13T07:13:28;8.95;;;4.22;;
75320;SDS011;68337;52.196;5.660;2023-03-13T07:15:55;8.95;;;4.35;;
75320;SDS011;68337;52.196;5.660;2023-03-13T07:18:23;8.52;;;3.97;;
75320;SDS011;68337;52.196;5.660;2023-03-13T07:20:53;7.32;;;3.85;;
75320;SDS011;68337;52.196;5.660;2023-03-13T07:23:20;8.95;;;4.07;;
75320;SDS011;68337;52.196;5.660;2023-03-13T07:25:56;12.90;;;3.90;;
75320;SDS011;68337;52.196;5.660;2023-03-13T07:28:26;13.05;;;4.10;;
75320;SDS011;68337;52.196;5.660;2023-03-13T07:30:53;10.20;;;3.95;;
75320;SDS011;68337;52.196;5.660;2023-03-13T07:33:19;11.93;;;4.20;;
75320;SDS011;68337;52.196;5.660;2023-03-13T07:35:48;10.80;;;3.88;;
75320;SDS011;68337;52.196;5.660;2023-03-13T07:38:15;11.68;;;3.83;;
75320;SDS011;68337;52.196;5.660;2023-03-13T07:40:48;8.25;;;4.13;;
75320;SDS011;68337;52.196;5.660;2023-03-13T07:43:14;9.95;;;3.65;;
75320;SDS011;68337;52.196;5.660;2023-03-13T07:45:48;11.27;;;4.47;;
75320;SDS011;68337;52.196;5.660;2023-03-13T07:48:24;13.25;;;3.83;;
75320;SDS011;68337;52.196;5.660;2023-03-13T07:51:01;8.57;;;3.92;;
75320;SDS011;68337;52.196;5.660;2023-03-13T07:53:28;6.28;;;4.40;;
75320;SDS011;68337;52.196;5.660;2023-03-13T07:55:58;16.17;;;4.32;;
75320;SDS011;68337;52.196;5.660;2023-03-13T07:58:26;9.43;;;4.65;;
75320;SDS011;68337;52.196;5.660;2023-03-13T08:00:54;9.25;;;4.35;;
75320;SDS011;68337;52.196;5.660;2023-03-13T08:03:20;11.60;;;4.55;;
75320;SDS011;68337;52.196;5.660;2023-03-13T08:05:47;8.80;;;4.72;;
75320;SDS011;68337;52.196;5.660;2023-03-13T08:08:21;11.63;;;4.43;;
75320;SDS011;68337;52.196;5.660;2023-03-13T08:10:47;12.25;;;4.78;;
75320;SDS011;68337;52.196;5.660;2023-03-13T08:13:12;6.40;;;4.22;;
75320;SDS011;68337;52.196;5.660;2023-03-13T08:15:38;8.88;;;5.30;;
75320;SDS011;68337;52.196;5.660;2023-03-13T08:18:04;9.85;;;4.43;;
75320;SDS011;68337;52.196;5.660;2023-03-13T08:20:29;13.85;;;4.88;;
75320;SDS011;68337;52.196;5.660;2023-03-13T08:22:55;11.82;;;4.07;;
75320;SDS011;68337;52.196;5.660;2023-03-13T08:25:21;7.88;;;4.18;;
75320;SDS011;68337;52.196;5.660;2023-03-13T08:27:47;12.82;;;4.97;;
75320;SDS011;68337;52.196;5.660;2023-03-13T08:30:12;8.38;;;4.18;;
75320;SDS011;68337;52.196;5.660;2023-03-13T08:32:39;9.32;;;4.60;;
75320;SDS011;68337;52.196;5.660;2023-03-13T08:35:04;10.88;;;4.82;;
75320;SDS011;68337;52.196;5.660;2023-03-13T08:37:30;7.38;;;4.18;;
75320;SDS011;68337;52.196;5.660;2023-03-13T08:39:56;12.88;;;5.00;;
75320;SDS011;68337;52.196;5.660;2023-03-13T08:42:22;13.50;;;5.05;;
75320;SDS011;68337;52.196;5.660;2023-03-13T08:44:48;8.93;;;4.80;;
75320;SDS011;68337;52.196;5.660;2023-03-13T08:47:14;10.60;;;4.68;;
75320;SDS011;68337;52.196;5.660;2023-03-13T08:49:42;10.88;;;4.63;;
75320;SDS011;68337;52.196;5.660;2023-03-13T08:52:08;10.20;;;4.45;;
75320;SDS011;68337;52.196;5.660;2023-03-13T08:54:33;13.38;;;4.47;;
75320;SDS011;68337;52.196;5.660;2023-03-13T08:56:59;6.75;;;3.92;;
75320;SDS011;68337;52.196;5.660;2023-03-13T08:59:25;7.95;;;3.92;;
75320;SDS011;68337;52.196;5.660;2023-03-13T09:01:51;6.18;;;3.88;;
75320;SDS011;68337;52.196;5.660;2023-03-13T09:04:17;9.15;;;3.58;;
75320;SDS011;68337;52.196;5.660;2023-03-13T09:06:43;11.70;;;3.72;;
75320;SDS011;68337;52.196;5.660;2023-03-13T09:09:09;6.40;;;3.72;;
75320;SDS011;68337;52.196;5.660;2023-03-13T09:11:37;8.23;;;2.97;;
75320;SDS011;68337;52.196;5.660;2023-03-13T09:14:03;7.95;;;3.60;;
75320;SDS011;68337;52.196;5.660;2023-03-13T09:16:30;8.80;;;3.33;;
75320;SDS011;68337;52.196;5.660;2023-03-13T09:18:57;8.93;;;3.17;;
75320;SDS011;68337;52.196;5.660;2023-03-13T09:21:27;9.48;;;3.90;;
75320;SDS011;68337;52.196;5.660;2023-03-13T09:23:54;13.10;;;3.22;;
75320;SDS011;68337;52.196;5.660;2023-03-13T09:26:21;6.28;;;2.95;;
75320;SDS011;68337;52.196;5.660;2023-03-13T09:28:48;7.55;;;2.95;;
75320;SDS011;68337;52.196;5.660;2023-03-13T09:31:18;4.30;;;2.50;;
75320;SDS011;68337;52.196;5.660;2023-03-13T09:33:44;9.25;;;3.30;;
75320;SDS011;68337;52.196;5.660;2023-03-13T09:36:12;9.20;;;2.88;;
75320;SDS011;68337;52.196;5.660;2023-03-13T09:38:39;5.20;;;2.60;;
75320;SDS011;68337;52.196;5.660;2023-03-13T09:41:26;7.80;;;2.53;;
75320;SDS011;68337;52.196;5.660;2023-03-13T09:44:46;5.75;;;2.47;;
75320;SDS011;68337;52.196;5.660;2023-03-13T09:47:37;6.43;;;2.33;;
75320;SDS011;68337;52.196;5.660;2023-03-13T09:50:27;4.90;;;2.05;;
75320;SDS011;68337;52.196;5.660;2023-03-13T09:53:01;9.95;;;2.42;;
75320;SDS011;68337;52.196;5.660;2023-03-13T09:55:35;6.80;;;1.90;;
75320;SDS011;68337;52.196;5.660;2023-03-13T09:58:03;5.13;;;1.83;;
75320;SDS011;68337;52.196;5.660;2023-03-13T10:01:01;4.70;;;1.73;;
75320;SDS011;68337;52.196;5.660;2023-03-13T10:06:00;5.57;;;1.92;;
75320;SDS011;68337;52.196;5.660;2023-03-13T10:08:30;6.20;;;1.90;;
75320;SDS011;68337;52.196;5.660;2023-03-13T10:13:52;6.32;;;2.03;;
75320;SDS011;68337;52.196;5.660;2023-03-13T10:16:54;4.53;;;2.00;;
75320;SDS011;68337;52.196;5.660;2023-03-13T10:19:41;5.88;;;1.48;;
75320;SDS011;68337;52.196;5.660;2023-03-13T10:22:28;4.60;;;1.60;;
75320;SDS011;68337;52.196;5.660;2023-03-13T10:24:57;3.85;;;1.50;;
75320;SDS011;68337;52.196;5.660;2023-03-13T10:27:26;6.78;;;1.70;;
75320;SDS011;68337;52.196;5.660;2023-03-13T10:29:52;6.13;;;1.90;;
75320;SDS011;68337;52.196;5.660;2023-03-13T10:32:18;5.45;;;1.50;;
75320;SDS011;68337;52.196;5.660;2023-03-13T10:34:47;4.55;;;2.10;;
75320;SDS011;68337;52.196;5.660;2023-03-13T10:37:14;3.83;;;1.88;;
75320;SDS011;68337;52.196;5.660;2023-03-13T10:39:43;2.13;;;1.60;;
75320;SDS011;68337;52.196;5.660;2023-03-13T10:45:18;3.70;;;1.52;;
75320;SDS011;68337;52.196;5.660;2023-03-13T10:47:52;6.53;;;1.92;;
75320;SDS011;68337;52.196;5.660;2023-03-13T10:50:20;3.58;;;1.55;;
75320;SDS011;68337;52.196;5.660;2023-03-13T10:52:48;2.65;;;1.35;;
75320;SDS011;68337;52.196;5.660;2023-03-13T10:55:16;6.32;;;1.70;;
75320;SDS011;68337;52.196;5.660;2023-03-13T11:00:44;6.55;;;1.98;;
75320;SDS011;68337;52.196;5.660;2023-03-13T11:03:14;4.90;;;1.80;;
75320;SDS011;68337;52.196;5.660;2023-03-13T11:08:25;7.35;;;2.05;;
75320;SDS011;68337;52.196;5.660;2023-03-13T11:11:02;6.82;;;2.03;;
75320;SDS011;68337;52.196;5.660;2023-03-13T11:16:27;2.70;;;1.60;;
75320;SDS011;68337;52.196;5.660;2023-03-13T11:21:22;5.75;;;1.65;;
75320;SDS011;68337;52.196;5.660;2023-03-13T11:23:57;5.15;;;1.48;;
75320;SDS011;68337;52.196;5.660;2023-03-13T11:26:34;6.60;;;1.60;;
75320;SDS011;68337;52.196;5.660;2023-03-13T11:29:20;3.40;;;1.48;;
75320;SDS011;68337;52.196;5.660;2023-03-13T11:32:03;6.38;;;1.50;;
75320;SDS011;68337;52.196;5.660;2023-03-13T11:34:46;2.45;;;1.17;;
75320;SDS011;68337;52.196;5.660;2023-03-13T11:37:16;7.95;;;1.58;;
75320;SDS011;68337;52.196;5.660;2023-03-13T11:51:23;5.55;;;1.42;;
75320;SDS011;68337;52.196;5.660;2023-03-13T11:53:55;4.35;;;1.42;;
75320;SDS011;68337;52.196;5.660;2023-03-13T12:02:04;5.00;;;1.52;;
75320;SDS011;68337;52.196;5.660;2023-03-13T12:04:53;4.20;;;1.50;;
75320;SDS011;68337;52.196;5.660;2023-03-13T12:09:58;2.08;;;1.10;;
75320;SDS011;68337;52.196;5.660;2023-03-13T12:15:16;5.82;;;1.67;;
75320;SDS011;68337;52.196;5.660;2023-03-13T12:17:59;2.72;;;1.20;;
75320;SDS011;68337;52.196;5.660;2023-03-13T12:24:00;4.45;;;1.20;;
75320;SDS011;68337;52.196;5.660;2023-03-13T12:26:40;2.83;;;1.42;;
75320;SDS011;68337;52.196;5.660;2023-03-13T12:29:24;7.53;;;1.52;;
75320;SDS011;68337;52.196;5.660;2023-03-13T12:43:03;8.27;;;1.88;;
75320;SDS011;68337;52.196;5.660;2023-03-13T12:45:30;7.30;;;1.75;;
75320;SDS011;68337;52.196;5.660;2023-03-13T13:00:53;10.02;;;2.22;;
75320;SDS011;68337;52.196;5.660;2023-03-13T13:06:19;8.57;;;2.10;;
75320;SDS011;68337;52.196;5.660;2023-03-13T13:08:47;10.70;;;2.13;;
75320;SDS011;68337;52.196;5.660;2023-03-13T13:16:44;8.52;;;2.15;;
75320;SDS011;68337;52.196;5.660;2023-03-13T13:24:55;7.07;;;1.95;;
75320;SDS011;68337;52.196;5.660;2023-03-13T13:29:59;4.75;;;1.60;;
75320;SDS011;68337;52.196;5.660;2023-03-13T13:37:45;6.60;;;1.80;;
75320;SDS011;68337;52.196;5.660;2023-03-13T13:47:48;11.55;;;2.25;;
75320;SDS011;68337;52.196;5.660;2023-03-13T13:50:18;7.15;;;2.28;;
75320;SDS011;68337;52.196;5.660;2023-03-13T13:52:49;11.18;;;2.85;;
75320;SDS011;68337;52.196;5.660;2023-03-13T13:58:12;9.73;;;2.45;;
75320;SDS011;68337;52.196;5.660;2023-03-13T14:03:19;10.52;;;2.50;;
75320;SDS011;68337;52.196;5.660;2023-03-13T14:05:47;9.82;;;2.50;;
75320;SDS011;68337;52.196;5.660;2023-03-13T14:08:31;9.10;;;3.00;;
75320;SDS011;68337;52.196;5.660;2023-03-13T14:11:23;17.67;;;3.42;;
75320;SDS011;68337;52.196;5.660;2023-03-13T14:14:15;14.18;;;3.05;;
75320;SDS011;68337;52.196;5.660;2023-03-13T14:16:45;12.07;;;3.25;;
75320;SDS011;68337;52.196;5.660;2023-03-13T14:19:22;13.98;;;3.13;;
75320;SDS011;68337;52.196;5.660;2023-03-13T14:21:58;14.25;;;3.53;;
75320;SDS011;68337;52.196;5.660;2023-03-13T14:24:25;15.68;;;3.58;;
75320;SDS011;68337;52.196;5.660;2023-03-13T14:26:50;12.10;;;3.25;;
75320;SDS011;68337;52.196;5.660;2023-03-13T14:29:17;12.90;;;3.75;;
75320;SDS011;68337;52.196;5.660;2023-03-13T14:31:50;13.38;;;3.30;;
75320;SDS011;68337;52.196;5.660;2023-03-13T14:34:18;14.50;;;3.47;;
75320;SDS011;68337;52.196;5.660;2023-03-13T14:36:51;11.27;;;3.20;;
75320;SDS011;68337;52.196;5.660;2023-03-13T14:42:03;14.10;;;3.90;;
75320;SDS011;68337;52.196;5.660;2023-03-13T14:44:31;14.95;;;3.75;;
75320;SDS011;68337;52.196;5.660;2023-03-13T14:46:59;12.52;;;3.15;;
75320;SDS011;68337;52.196;5.660;2023-03-13T14:49:30;14.07;;;3.50;;
75320;SDS011;68337;52.196;5.660;2023-03-13T14:52:06;15.85;;;3.50;;
75320;SDS011;68337;52.196;5.660;2023-03-13T14:54:51;12.25;;;3.45;;
75320;SDS011;68337;52.196;5.660;2023-03-13T14:57:23;12.05;;;3.65;;
75320;SDS011;68337;52.196;5.660;2023-03-13T14:59:51;12.85;;;2.85;;
75320;SDS011;68337;52.196;5.660;2023-03-13T15:07:34;18.15;;;3.85;;
75320;SDS011;68337;52.196;5.660;2023-03-13T15:10:23;13.77;;;3.03;;
75320;SDS011;68337;52.196;5.660;2023-03-13T15:13:25;13.57;;;3.92;;
75320;SDS011;68337;52.196;5.660;2023-03-13T15:15:58;10.32;;;3.15;;
75320;SDS011;68337;52.196;5.660;2023-03-13T15:18:29;12.38;;;2.80;;
75320;SDS011;68337;52.196;5.660;2023-03-13T15:24:28;13.07;;;3.10;;
75320;SDS011;68337;52.196;5.660;2023-03-13T15:26:36;13.23;;;3.45;;
75320;SDS011;68337;52.196;5.660;2023-03-13T15:29:02;9.43;;;3.25;;
75320;SDS011;68337;52.196;5.660;2023-03-13T15:31:28;14.52;;;3.58;;
75320;SDS011;68337;52.196;5.660;2023-03-13T15:34:05;18.95;;;3.83;;
75320;SDS011;68337;52.196;5.660;2023-03-13T15:36:36;10.32;;;2.95;;
75320;SDS011;68337;52.196;5.660;2023-03-13T15:39:05;13.77;;;3.60;;
75320;SDS011;68337;52.196;5.660;2023-03-13T15:41:37;18.25;;;3.53;;
75320;SDS011;68337;52.196;5.660;2023-03-13T15:44:03;22.60;;;3.72;;
75320;SDS011;68337;52.196;5.660;2023-03-13T15:46:29;18.20;;;4.45;;
75320;SDS011;68337;52.196;5.660;2023-03-13T15:48:54;15.73;;;3.65;;
75320;SDS011;68337;52.196;5.660;2023-03-13T15:51:20;14.50;;;3.25;;
75320;SDS011;68337;52.196;5.660;2023-03-13T15:53:46;15.75;;;4.30;;
75320;SDS011;68337;52.196;5.660;2023-03-13T15:56:15;12.90;;;3.67;;
75320;SDS011;68337;52.196;5.660;2023-03-13T15:58:47;19.65;;;3.88;;
75320;SDS011;68337;52.196;5.660;2023-03-13T16:01:14;16.40;;;3.88;;
75320;SDS011;68337;52.196;5.660;2023-03-13T16:03:41;16.17;;;3.75;;
75320;SDS011;68337;52.196;5.660;2023-03-13T16:06:14;15.93;;;3.70;;
75320;SDS011;68337;52.196;5.660;2023-03-13T16:08:42;15.82;;;3.67;;
75320;SDS011;68337;52.196;5.660;2023-03-13T16:11:10;16.30;;;3.42;;
75320;SDS011;68337;52.196;5.660;2023-03-13T16:13:37;21.45;;;4.28;;
75320;SDS011;68337;52.196;5.660;2023-03-13T16:16:16;18.13;;;4.35;;
75320;SDS011;68337;52.196;5.660;2023-03-13T16:18:44;15.88;;;4.18;;
75320;SDS011;68337;52.196;5.660;2023-03-13T16:21:14;16.35;;;4.10;;
75320;SDS011;68337;52.196;5.660;2023-03-13T16:23:45;19.42;;;4.03;;
75320;SDS011;68337;52.196;5.660;2023-03-13T16:26:15;18.73;;;4.07;;
75320;SDS011;68337;52.196;5.660;2023-03-13T16:28:43;19.15;;;4.00;;
75320;SDS011;68337;52.196;5.660;2023-03-13T16:31:43;14.65;;;3.58;;
75320;SDS011;68337;52.196;5.660;2023-03-13T16:34:02;19.63;;;4.35;;
75320;SDS011;68337;52.196;5.660;2023-03-13T16:36:28;19.38;;;4.03;;
75320;SDS011;68337;52.196;5.660;2023-03-13T16:38:56;17.63;;;4.00;;
75320;SDS011;68337;52.196;5.660;2023-03-13T16:41:25;15.25;;;3.47;;
75320;SDS011;68337;52.196;5.660;2023-03-13T16:43:53;19.10;;;4.20;;
75320;SDS011;68337;52.196;5.660;2023-03-13T16:46:20;17.17;;;4.40;;
75320;SDS011;68337;52.196;5.660;2023-03-13T16:48:48;18.27;;;4.28;;
75320;SDS011;68337;52.196;5.660;2023-03-13T16:51:15;23.60;;;5.25;;
75320;SDS011;68337;52.196;5.660;2023-03-13T16:53:43;22.40;;;4.97;;
75320;SDS011;68337;52.196;5.660;2023-03-13T16:58:55;21.42;;;4.00;;
75320;SDS011;68337;52.196;5.660;2023-03-13T17:01:22;18.13;;;3.70;;